Sandston, Virginia
Current Conditions -  °F | °C
As of 1:54 PM on Friday 28 Nov 2014 (Local Time) from KRIC Reporting Station
Scattered Clouds Scattered Clouds  
Wind Chill: 40°   Ceiling: Unl
Heat Index: 44°   Visibility: 10mi
Dew Point: 19°   Wind: 7mph
Humidity: 37%   Direction: 310°NW
Pressure: 30.27"   Gusts: 17mph
Location:  37.52°N, 77.32°W
Report Text: KRIC 281854Z 31006G15KT 10SM FEW050 SCT250 07/M07 A3027 RMK AO2 SLP256 T00671072
Loading
Personal Weather Stations






























Interactive Weather Map New forecast layout! Learn more

10-Day Weather Forecast

Advertisements
Track Severe Weather on mobile